Gates Mills, OH (44040)

4:52 PM EDT on July 26, 2016 (GMT -0400)
OHDOT | | Change Station

Elev 1077 ft 41.51 °N, 81.44 °W | Updated 37 minutes ago

Clear
Clear
83.0 °F
Feels Like 83.0 °F
N
5.0
Wind Variable Wind from ENE
Gusts 6.0 mph

Today
High -- | Low -- °F
--% Chance of Precip.
Yesterday
High -- | Low -- °F
Precip. -- in
Pressure 30.01 in
Visibility 10.0 miles
Clouds Clear
Dew Point 62.0 °F
Humidity 48%
Rainfall in
Snow Depth Not available.
6:15 AM 8:48 PM
Waning Gibbous, 51% visible
METAR KBKL 261953Z 02008KT 10SM CLR 27/17 A3002 RMK AO2 SLP161 T02670172
Pressure 30.01 in
Visibility 10.0 miles
Clouds Clear
Dew Point 62.0 °F
Humidity 48%
Rainfall in
Snow Depth Not available.
6:15 AM 8:48 PM
Waning Gibbous, 51% visible
METAR KBKL 261953Z 02008KT 10SM CLR 27/17 A3002 RMK AO2 SLP161 T02670172

10-Day Weather Forecast

Almanac

Astronomy

Jul. 26, 2016 Rise Set
Actual Time
Civil Twilight
Nautical Twilight
Astronomical Twilight
Moon
Length of Visible Light
Length of Day
Tomorrow will be .
, % of the Moon is Illuminated

Today's Extremes

State Highs State Lows

Community

WunderPhotos

Upload Photos

1,927,678 photos uploaded!

WunderBlog® & News

Nearby

Air Quality

  Air Quality AQ Index Pollutant
Not available.

Snow Depth

Station Depth Elevation

Earthquake Activity

City Distance Mag. Time & Date
Minimum magnitude displayed is 2.5.

Coastal Water Temperatures

Place Temperature

Stations

Nearby Weather Stations

Station Location Temp. Windchill Dew Point Humidity Wind Precip. Elev Updated Type
                   

Watches & Warnings

There are currently no watches in effect.